sensor_id;sensor_type;location;lat;lon;timestamp;temperature;humidity
13806;DHT22;6974;53.606;9.872;2022-11-15T00:02:00;8.80;99.90
13806;DHT22;6974;53.606;9.872;2022-11-15T00:04:31;8.80;99.90
13806;DHT22;6974;53.606;9.872;2022-11-15T00:06:57;8.70;99.90
13806;DHT22;6974;53.606;9.872;2022-11-15T00:09:24;8.80;99.90
13806;DHT22;6974;53.606;9.872;2022-11-15T00:11:51;8.80;99.90
13806;DHT22;6974;53.606;9.872;2022-11-15T00:14:18;8.80;99.90
13806;DHT22;6974;53.606;9.872;2022-11-15T00:16:45;8.80;99.90
13806;DHT22;6974;53.606;9.872;2022-11-15T00:19:12;8.80;99.90
13806;DHT22;6974;53.606;9.872;2022-11-15T00:21:40;8.70;99.90
13806;DHT22;6974;53.606;9.872;2022-11-15T00:24:07;8.70;99.90
13806;DHT22;6974;53.606;9.872;2022-11-15T00:26:34;8.80;99.90
13806;DHT22;6974;53.606;9.872;2022-11-15T00:29:01;8.70;99.90
13806;DHT22;6974;53.606;9.872;2022-11-15T00:31:28;8.70;99.90
13806;DHT22;6974;53.606;9.872;2022-11-15T00:33:55;8.80;99.90
13806;DHT22;6974;53.606;9.872;2022-11-15T00:36:21;8.70;99.90
13806;DHT22;6974;53.606;9.872;2022-11-15T00:38:50;8.80;99.90
13806;DHT22;6974;53.606;9.872;2022-11-15T00:41:17;8.80;99.90
13806;DHT22;6974;53.606;9.872;2022-11-15T00:43:43;8.70;99.90
13806;DHT22;6974;53.606;9.872;2022-11-15T00:46:10;8.80;99.90
13806;DHT22;6974;53.606;9.872;2022-11-15T00:48:37;8.80;99.90
13806;DHT22;6974;53.606;9.872;2022-11-15T00:51:04;8.90;99.90
13806;DHT22;6974;53.606;9.872;2022-11-15T00:53:31;8.90;99.90
13806;DHT22;6974;53.606;9.872;2022-11-15T00:55:59;8.80;99.90
13806;DHT22;6974;53.606;9.872;2022-11-15T00:58:26;8.80;99.90
13806;DHT22;6974;53.606;9.872;2022-11-15T01:00:53;8.80;99.90
13806;DHT22;6974;53.606;9.872;2022-11-15T01:03:20;8.80;99.90
13806;DHT22;6974;53.606;9.872;2022-11-15T01:05:47;8.80;99.90
13806;DHT22;6974;53.606;9.872;2022-11-15T01:08:15;8.80;99.90
13806;DHT22;6974;53.606;9.872;2022-11-15T01:10:42;8.80;99.90
13806;DHT22;6974;53.606;9.872;2022-11-15T01:13:10;8.80;99.90
13806;DHT22;6974;53.606;9.872;2022-11-15T01:15:39;8.80;99.90
13806;DHT22;6974;53.606;9.872;2022-11-15T01:18:06;8.80;99.90
13806;DHT22;6974;53.606;9.872;2022-11-15T01:20:33;8.70;99.90
13806;DHT22;6974;53.606;9.872;2022-11-15T01:23:00;8.70;99.90
13806;DHT22;6974;53.606;9.872;2022-11-15T01:25:27;8.70;99.90
13806;DHT22;6974;53.606;9.872;2022-11-15T01:27:54;8.80;99.90
13806;DHT22;6974;53.606;9.872;2022-11-15T01:30:23;8.70;99.90
13806;DHT22;6974;53.606;9.872;2022-11-15T01:32:50;8.70;99.90
13806;DHT22;6974;53.606;9.872;2022-11-15T01:35:17;8.60;99.90
13806;DHT22;6974;53.606;9.872;2022-11-15T01:37:44;8.60;99.90
13806;DHT22;6974;53.606;9.872;2022-11-15T01:40:11;8.60;99.90
13806;DHT22;6974;53.606;9.872;2022-11-15T01:42:38;8.50;99.90
13806;DHT22;6974;53.606;9.872;2022-11-15T01:45:05;8.50;99.90
13806;DHT22;6974;53.606;9.872;2022-11-15T01:47:38;8.50;99.90
13806;DHT22;6974;53.606;9.872;2022-11-15T01:50:09;8.50;99.90
13806;DHT22;6974;53.606;9.872;2022-11-15T01:52:38;8.40;99.90
13806;DHT22;6974;53.606;9.872;2022-11-15T01:55:09;8.40;99.90
13806;DHT22;6974;53.606;9.872;2022-11-15T01:57:37;8.40;99.90
13806;DHT22;6974;53.606;9.872;2022-11-15T02:00:05;8.40;99.90
13806;DHT22;6974;53.606;9.872;2022-11-15T02:02:34;8.30;99.90
13806;DHT22;6974;53.606;9.872;2022-11-15T02:05:03;8.30;99.90
13806;DHT22;6974;53.606;9.872;2022-11-15T02:07:31;8.30;99.90
13806;DHT22;6974;53.606;9.872;2022-11-15T02:10:02;8.30;99.90
13806;DHT22;6974;53.606;9.872;2022-11-15T02:12:31;8.20;99.90
13806;DHT22;6974;53.606;9.872;2022-11-15T02:14:58;8.20;99.90
13806;DHT22;6974;53.606;9.872;2022-11-15T02:17:36;8.10;99.90
13806;DHT22;6974;53.606;9.872;2022-11-15T02:23:31;8.10;99.90
13806;DHT22;6974;53.606;9.872;2022-11-15T02:29:00;8.10;99.90
13806;DHT22;6974;53.606;9.872;2022-11-15T02:31:35;8.10;99.90
13806;DHT22;6974;53.606;9.872;2022-11-15T02:34:07;8.10;99.90
13806;DHT22;6974;53.606;9.872;2022-11-15T02:36:41;8.10;99.90
13806;DHT22;6974;53.606;9.872;2022-11-15T02:39:14;8.10;99.90
13806;DHT22;6974;53.606;9.872;2022-11-15T02:44:16;8.00;99.90
13806;DHT22;6974;53.606;9.872;2022-11-15T02:46:54;8.00;99.90
13806;DHT22;6974;53.606;9.872;2022-11-15T02:49:41;8.00;99.90
13806;DHT22;6974;53.606;9.872;2022-11-15T02:52:08;8.00;99.90
13806;DHT22;6974;53.606;9.872;2022-11-15T02:54:37;8.00;99.90
13806;DHT22;6974;53.606;9.872;2022-11-15T02:57:10;7.90;99.90
13806;DHT22;6974;53.606;9.872;2022-11-15T03:00:01;7.90;99.90
13806;DHT22;6974;53.606;9.872;2022-11-15T03:02:42;7.90;99.90
13806;DHT22;6974;53.606;9.872;2022-11-15T03:05:18;7.90;99.90
13806;DHT22;6974;53.606;9.872;2022-11-15T03:07:51;7.90;99.90
13806;DHT22;6974;53.606;9.872;2022-11-15T03:10:24;7.90;99.90
13806;DHT22;6974;53.606;9.872;2022-11-15T03:12:56;8.00;99.90
13806;DHT22;6974;53.606;9.872;2022-11-15T03:15:29;7.90;99.90
13806;DHT22;6974;53.606;9.872;2022-11-15T03:18:02;7.90;99.90
13806;DHT22;6974;53.606;9.872;2022-11-15T03:20:31;7.90;99.90
13806;DHT22;6974;53.606;9.872;2022-11-15T03:23:02;7.90;99.90
13806;DHT22;6974;53.606;9.872;2022-11-15T03:25:32;7.90;99.90
13806;DHT22;6974;53.606;9.872;2022-11-15T03:28:04;8.00;99.90
13806;DHT22;6974;53.606;9.872;2022-11-15T03:30:33;7.90;99.90
13806;DHT22;6974;53.606;9.872;2022-11-15T03:33:04;7.90;99.90
13806;DHT22;6974;53.606;9.872;2022-11-15T03:35:35;7.90;99.90
13806;DHT22;6974;53.606;9.872;2022-11-15T03:38:09;7.90;99.90
13806;DHT22;6974;53.606;9.872;2022-11-15T03:40:40;7.90;99.90
13806;DHT22;6974;53.606;9.872;2022-11-15T03:43:14;7.90;99.90
13806;DHT22;6974;53.606;9.872;2022-11-15T03:45:46;7.90;99.90
13806;DHT22;6974;53.606;9.872;2022-11-15T03:48:21;7.90;99.90
13806;DHT22;6974;53.606;9.872;2022-11-15T03:50:49;7.90;99.90
13806;DHT22;6974;53.606;9.872;2022-11-15T03:53:17;7.90;99.90
13806;DHT22;6974;53.606;9.872;2022-11-15T03:55:44;7.80;99.90
13806;DHT22;6974;53.606;9.872;2022-11-15T03:58:11;7.90;99.90
13806;DHT22;6974;53.606;9.872;2022-11-15T04:00:38;7.80;99.90
13806;DHT22;6974;53.606;9.872;2022-11-15T04:03:06;7.80;99.90
13806;DHT22;6974;53.606;9.872;2022-11-15T04:05:35;7.80;99.90
13806;DHT22;6974;53.606;9.872;2022-11-15T04:08:03;7.90;99.90
13806;DHT22;6974;53.606;9.872;2022-11-15T04:10:30;7.80;99.90
13806;DHT22;6974;53.606;9.872;2022-11-15T04:12:57;7.90;99.90
13806;DHT22;6974;53.606;9.872;2022-11-15T04:15:24;7.90;99.90
13806;DHT22;6974;53.606;9.872;2022-11-15T04:17:53;7.90;99.90
13806;DHT22;6974;53.606;9.872;2022-11-15T04:20:23;7.90;99.90
13806;DHT22;6974;53.606;9.872;2022-11-15T04:23:12;7.90;99.90
13806;DHT22;6974;53.606;9.872;2022-11-15T04:25:59;7.90;99.90
13806;DHT22;6974;53.606;9.872;2022-11-15T04:28:26;7.90;99.90
13806;DHT22;6974;53.606;9.872;2022-11-15T04:30:54;7.90;99.90
13806;DHT22;6974;53.606;9.872;2022-11-15T04:33:21;8.00;99.90
13806;DHT22;6974;53.606;9.872;2022-11-15T04:35:49;7.90;99.90
13806;DHT22;6974;53.606;9.872;2022-11-15T04:38:31;7.90;99.90
13806;DHT22;6974;53.606;9.872;2022-11-15T04:40:58;8.00;99.90
13806;DHT22;6974;53.606;9.872;2022-11-15T04:43:25;8.00;99.90
13806;DHT22;6974;53.606;9.872;2022-11-15T04:45:53;8.00;99.90
13806;DHT22;6974;53.606;9.872;2022-11-15T04:48:20;8.10;99.90
13806;DHT22;6974;53.606;9.872;2022-11-15T04:50:47;8.10;99.90
13806;DHT22;6974;53.606;9.872;2022-11-15T04:53:14;8.10;99.90
13806;DHT22;6974;53.606;9.872;2022-11-15T04:55:46;8.10;99.90
13806;DHT22;6974;53.606;9.872;2022-11-15T04:58:14;8.20;99.90
13806;DHT22;6974;53.606;9.872;2022-11-15T05:00:43;8.20;99.90
13806;DHT22;6974;53.606;9.872;2022-11-15T05:03:10;8.20;99.90
13806;DHT22;6974;53.606;9.872;2022-11-15T05:05:56;8.20;99.90
13806;DHT22;6974;53.606;9.872;2022-11-15T05:08:24;8.30;99.90
13806;DHT22;6974;53.606;9.872;2022-11-15T05:10:53;8.30;99.90
13806;DHT22;6974;53.606;9.872;2022-11-15T05:13:20;8.30;99.90
13806;DHT22;6974;53.606;9.872;2022-11-15T05:15:48;8.40;99.90
13806;DHT22;6974;53.606;9.872;2022-11-15T05:18:15;8.40;99.90
13806;DHT22;6974;53.606;9.872;2022-11-15T05:20:42;8.50;99.90
13806;DHT22;6974;53.606;9.872;2022-11-15T05:23:11;8.50;99.90
13806;DHT22;6974;53.606;9.872;2022-11-15T05:25:38;8.60;99.90
13806;DHT22;6974;53.606;9.872;2022-11-15T05:28:07;8.70;99.90
13806;DHT22;6974;53.606;9.872;2022-11-15T05:30:35;8.60;99.90
13806;DHT22;6974;53.606;9.872;2022-11-15T05:33:03;8.70;99.90
13806;DHT22;6974;53.606;9.872;2022-11-15T05:35:34;8.70;99.90
13806;DHT22;6974;53.606;9.872;2022-11-15T05:38:04;8.70;99.90
13806;DHT22;6974;53.606;9.872;2022-11-15T05:40:32;8.60;99.90
13806;DHT22;6974;53.606;9.872;2022-11-15T05:43:00;8.60;99.90
13806;DHT22;6974;53.606;9.872;2022-11-15T05:45:31;8.70;99.90
13806;DHT22;6974;53.606;9.872;2022-11-15T05:48:00;8.70;99.90
13806;DHT22;6974;53.606;9.872;2022-11-15T05:50:31;8.70;99.90
13806;DHT22;6974;53.606;9.872;2022-11-15T05:52:58;8.70;99.90
13806;DHT22;6974;53.606;9.872;2022-11-15T05:55:29;8.70;99.90
13806;DHT22;6974;53.606;9.872;2022-11-15T05:57:56;8.70;99.90
13806;DHT22;6974;53.606;9.872;2022-11-15T06:00:25;8.70;99.90
13806;DHT22;6974;53.606;9.872;2022-11-15T06:02:54;8.70;99.90
13806;DHT22;6974;53.606;9.872;2022-11-15T06:05:21;8.80;99.90
13806;DHT22;6974;53.606;9.872;2022-11-15T06:07:48;8.80;99.90
13806;DHT22;6974;53.606;9.872;2022-11-15T06:10:16;8.80;99.90
13806;DHT22;6974;53.606;9.872;2022-11-15T06:12:45;8.90;99.90
13806;DHT22;6974;53.606;9.872;2022-11-15T06:15:12;8.90;99.90
13806;DHT22;6974;53.606;9.872;2022-11-15T06:17:40;9.00;99.90
13806;DHT22;6974;53.606;9.872;2022-11-15T06:20:10;9.00;99.90
13806;DHT22;6974;53.606;9.872;2022-11-15T06:22:38;9.00;99.90
13806;DHT22;6974;53.606;9.872;2022-11-15T06:25:06;9.10;99.90
13806;DHT22;6974;53.606;9.872;2022-11-15T06:27:36;9.10;99.90
13806;DHT22;6974;53.606;9.872;2022-11-15T06:30:04;9.10;99.90
13806;DHT22;6974;53.606;9.872;2022-11-15T06:32:32;9.00;99.90
13806;DHT22;6974;53.606;9.872;2022-11-15T06:34:59;9.00;99.90
13806;DHT22;6974;53.606;9.872;2022-11-15T06:37:28;9.10;99.90
13806;DHT22;6974;53.606;9.872;2022-11-15T06:39:55;9.10;99.90
13806;DHT22;6974;53.606;9.872;2022-11-15T06:42:22;9.10;99.90
13806;DHT22;6974;53.606;9.872;2022-11-15T06:44:49;9.10;99.90
13806;DHT22;6974;53.606;9.872;2022-11-15T06:47:16;9.20;99.90
13806;DHT22;6974;53.606;9.872;2022-11-15T06:49:43;9.20;99.90
13806;DHT22;6974;53.606;9.872;2022-11-15T06:52:13;9.30;99.90
13806;DHT22;6974;53.606;9.872;2022-11-15T06:54:42;9.30;99.90
13806;DHT22;6974;53.606;9.872;2022-11-15T06:57:09;9.30;99.90
13806;DHT22;6974;53.606;9.872;2022-11-15T06:59:36;9.30;99.90
13806;DHT22;6974;53.606;9.872;2022-11-15T07:02:04;9.40;99.90
13806;DHT22;6974;53.606;9.872;2022-11-15T07:04:31;9.40;99.90
13806;DHT22;6974;53.606;9.872;2022-11-15T07:06:58;9.40;99.90
13806;DHT22;6974;53.606;9.872;2022-11-15T07:09:26;9.50;99.90
13806;DHT22;6974;53.606;9.872;2022-11-15T07:11:54;9.50;99.90
13806;DHT22;6974;53.606;9.872;2022-11-15T07:14:21;9.50;99.90
13806;DHT22;6974;53.606;9.872;2022-11-15T07:16:48;9.60;99.90
13806;DHT22;6974;53.606;9.872;2022-11-15T07:19:16;9.60;99.90
13806;DHT22;6974;53.606;9.872;2022-11-15T07:21:55;9.50;99.90
13806;DHT22;6974;53.606;9.872;2022-11-15T07:24:22;9.60;99.90
13806;DHT22;6974;53.606;9.872;2022-11-15T07:26:49;9.50;99.90
13806;DHT22;6974;53.606;9.872;2022-11-15T07:29:18;9.50;99.90
13806;DHT22;6974;53.606;9.872;2022-11-15T07:31:45;9.50;99.90
13806;DHT22;6974;53.606;9.872;2022-11-15T07:34:13;9.60;99.90
13806;DHT22;6974;53.606;9.872;2022-11-15T07:36:40;9.60;99.90
13806;DHT22;6974;53.606;9.872;2022-11-15T07:39:07;9.60;99.90
13806;DHT22;6974;53.606;9.872;2022-11-15T07:41:35;9.50;99.90
13806;DHT22;6974;53.606;9.872;2022-11-15T07:44:02;9.50;99.90
13806;DHT22;6974;53.606;9.872;2022-11-15T07:46:31;9.60;99.90
13806;DHT22;6974;53.606;9.872;2022-11-15T07:48:58;9.60;99.90
13806;DHT22;6974;53.606;9.872;2022-11-15T07:51:25;9.60;99.90
13806;DHT22;6974;53.606;9.872;2022-11-15T07:53:53;9.50;99.90
13806;DHT22;6974;53.606;9.872;2022-11-15T07:56:21;9.60;99.90
13806;DHT22;6974;53.606;9.872;2022-11-15T07:58:49;9.50;99.90
13806;DHT22;6974;53.606;9.872;2022-11-15T08:01:17;9.60;99.90
13806;DHT22;6974;53.606;9.872;2022-11-15T08:03:46;9.50;99.90
13806;DHT22;6974;53.606;9.872;2022-11-15T08:06:14;9.60;99.90
13806;DHT22;6974;53.606;9.872;2022-11-15T08:08:41;9.60;99.90
13806;DHT22;6974;53.606;9.872;2022-11-15T08:11:07;9.70;99.90
13806;DHT22;6974;53.606;9.872;2022-11-15T08:13:39;9.60;99.90
13806;DHT22;6974;53.606;9.872;2022-11-15T08:16:06;9.70;99.90
13806;DHT22;6974;53.606;9.872;2022-11-15T08:18:35;9.60;99.90
13806;DHT22;6974;53.606;9.872;2022-11-15T08:21:04;9.70;99.90
13806;DHT22;6974;53.606;9.872;2022-11-15T08:23:32;9.70;99.90
13806;DHT22;6974;53.606;9.872;2022-11-15T08:26:03;9.70;99.90
13806;DHT22;6974;53.606;9.872;2022-11-15T08:28:31;9.70;99.90
13806;DHT22;6974;53.606;9.872;2022-11-15T08:30:59;9.70;99.90
13806;DHT22;6974;53.606;9.872;2022-11-15T08:33:26;9.70;99.90
13806;DHT22;6974;53.606;9.872;2022-11-15T08:35:56;9.70;99.90
13806;DHT22;6974;53.606;9.872;2022-11-15T08:38:26;9.80;99.90
13806;DHT22;6974;53.606;9.872;2022-11-15T08:41:01;9.80;99.90
13806;DHT22;6974;53.606;9.872;2022-11-15T08:43:28;9.90;99.90
13806;DHT22;6974;53.606;9.872;2022-11-15T08:45:55;9.90;99.90
13806;DHT22;6974;53.606;9.872;2022-11-15T08:48:22;10.00;99.90
13806;DHT22;6974;53.606;9.872;2022-11-15T08:50:51;10.00;99.90
13806;DHT22;6974;53.606;9.872;2022-11-15T08:53:19;10.00;99.90
13806;DHT22;6974;53.606;9.872;2022-11-15T08:55:47;10.00;99.90
13806;DHT22;6974;53.606;9.872;2022-11-15T08:58:14;10.00;99.90
13806;DHT22;6974;53.606;9.872;2022-11-15T09:00:41;10.10;99.90
13806;DHT22;6974;53.606;9.872;2022-11-15T09:03:08;10.10;99.90
13806;DHT22;6974;53.606;9.872;2022-11-15T09:05:36;10.10;99.90
13806;DHT22;6974;53.606;9.872;2022-11-15T09:08:04;10.10;99.90
13806;DHT22;6974;53.606;9.872;2022-11-15T09:10:31;10.10;99.90
13806;DHT22;6974;53.606;9.872;2022-11-15T09:12:59;10.10;99.90
13806;DHT22;6974;53.606;9.872;2022-11-15T09:15:26;10.10;99.90
13806;DHT22;6974;53.606;9.872;2022-11-15T09:17:53;10.00;99.90
13806;DHT22;6974;53.606;9.872;2022-11-15T09:20:20;10.10;99.90
13806;DHT22;6974;53.606;9.872;2022-11-15T09:22:46;10.10;99.90
13806;DHT22;6974;53.606;9.872;2022-11-15T09:25:13;10.10;99.90
13806;DHT22;6974;53.606;9.872;2022-11-15T09:27:40;10.20;99.90
13806;DHT22;6974;53.606;9.872;2022-11-15T09:30:09;10.20;99.90
13806;DHT22;6974;53.606;9.872;2022-11-15T09:32:36;10.20;99.90
13806;DHT22;6974;53.606;9.872;2022-11-15T09:35:04;10.20;99.90
13806;DHT22;6974;53.606;9.872;2022-11-15T09:37:31;10.20;99.90
13806;DHT22;6974;53.606;9.872;2022-11-15T09:39:58;10.20;99.90
13806;DHT22;6974;53.606;9.872;2022-11-15T09:42:34;10.30;99.90
13806;DHT22;6974;53.606;9.872;2022-11-15T09:45:15;10.40;99.90
13806;DHT22;6974;53.606;9.872;2022-11-15T09:48:07;10.40;99.90
13806;DHT22;6974;53.606;9.872;2022-11-15T09:50:41;10.50;99.90
13806;DHT22;6974;53.606;9.872;2022-11-15T09:53:17;10.50;99.90
13806;DHT22;6974;53.606;9.872;2022-11-15T09:56:01;10.60;99.90
13806;DHT22;6974;53.606;9.872;2022-11-15T09:58:35;10.50;99.90
13806;DHT22;6974;53.606;9.872;2022-11-15T10:03:50;10.60;99.90
13806;DHT22;6974;53.606;9.872;2022-11-15T10:06:21;10.70;99.90
13806;DHT22;6974;53.606;9.872;2022-11-15T10:08:57;10.70;99.90
13806;DHT22;6974;53.606;9.872;2022-11-15T10:11:28;10.70;99.90
13806;DHT22;6974;53.606;9.872;2022-11-15T10:13:59;10.70;99.90
13806;DHT22;6974;53.606;9.872;2022-11-15T10:17:05;10.70;99.90
13806;DHT22;6974;53.606;9.872;2022-11-15T10:19:39;10.80;99.90
13806;DHT22;6974;53.606;9.872;2022-11-15T10:22:23;10.80;99.90
13806;DHT22;6974;53.606;9.872;2022-11-15T10:27:20;10.80;99.90
13806;DHT22;6974;53.606;9.872;2022-11-15T10:29:48;10.90;99.90
13806;DHT22;6974;53.606;9.872;2022-11-15T10:32:18;10.90;99.90
13806;DHT22;6974;53.606;9.872;2022-11-15T10:34:48;10.80;99.90
13806;DHT22;6974;53.606;9.872;2022-11-15T10:37:27;10.90;99.90
13806;DHT22;6974;53.606;9.872;2022-11-15T10:40:03;10.90;99.90
13806;DHT22;6974;53.606;9.872;2022-11-15T10:42:30;10.90;99.90
13806;DHT22;6974;53.606;9.872;2022-11-15T10:44:57;10.90;99.90
13806;DHT22;6974;53.606;9.872;2022-11-15T10:47:27;10.90;99.90
13806;DHT22;6974;53.606;9.872;2022-11-15T10:49:58;10.90;99.90
13806;DHT22;6974;53.606;9.872;2022-11-15T10:52:26;10.90;99.90
13806;DHT22;6974;53.606;9.872;2022-11-15T10:54:56;10.90;99.90
13806;DHT22;6974;53.606;9.872;2022-11-15T10:57:28;10.90;99.90
13806;DHT22;6974;53.606;9.872;2022-11-15T10:59:59;10.90;99.90
13806;DHT22;6974;53.606;9.872;2022-11-15T11:02:36;11.00;99.90
13806;DHT22;6974;53.606;9.872;2022-11-15T11:05:06;11.10;99.90
13806;DHT22;6974;53.606;9.872;2022-11-15T11:07:35;11.10;99.90
13806;DHT22;6974;53.606;9.872;2022-11-15T11:10:04;11.10;99.90
13806;DHT22;6974;53.606;9.872;2022-11-15T11:12:43;11.10;99.90
13806;DHT22;6974;53.606;9.872;2022-11-15T11:15:12;11.20;99.90
13806;DHT22;6974;53.606;9.872;2022-11-15T11:17:52;11.20;99.90
13806;DHT22;6974;53.606;9.872;2022-11-15T11:20:26;11.20;99.90
13806;DHT22;6974;53.606;9.872;2022-11-15T11:23:16;11.20;99.90
13806;DHT22;6974;53.606;9.872;2022-11-15T11:25:51;11.30;99.90
13806;DHT22;6974;53.606;9.872;2022-11-15T11:28:30;11.30;99.90
13806;DHT22;6974;53.606;9.872;2022-11-15T11:31:07;11.30;99.90
13806;DHT22;6974;53.606;9.872;2022-11-15T11:33:44;11.40;99.90
13806;DHT22;6974;53.606;9.872;2022-11-15T11:36:21;11.40;99.90
13806;DHT22;6974;53.606;9.872;2022-11-15T11:38:59;11.40;99.90
13806;DHT22;6974;53.606;9.872;2022-11-15T11:41:46;11.40;99.90
13806;DHT22;6974;53.606;9.872;2022-11-15T11:44:28;11.40;99.90
13806;DHT22;6974;53.606;9.872;2022-11-15T11:47:00;11.50;99.90
13806;DHT22;6974;53.606;9.872;2022-11-15T11:49:34;11.50;99.90
13806;DHT22;6974;53.606;9.872;2022-11-15T11:52:05;11.60;99.90
13806;DHT22;6974;53.606;9.872;2022-11-15T11:54:40;11.60;99.90
13806;DHT22;6974;53.606;9.872;2022-11-15T11:57:15;11.60;99.90
13806;DHT22;6974;53.606;9.872;2022-11-15T11:59:48;11.60;99.90
13806;DHT22;6974;53.606;9.872;2022-11-15T12:02:20;11.60;99.90
13806;DHT22;6974;53.606;9.872;2022-11-15T12:04:58;11.60;99.90
13806;DHT22;6974;53.606;9.872;2022-11-15T12:07:30;11.70;99.90
13806;DHT22;6974;53.606;9.872;2022-11-15T12:10:01;11.70;99.90
13806;DHT22;6974;53.606;9.872;2022-11-15T12:12:34;11.80;99.90
13806;DHT22;6974;53.606;9.872;2022-11-15T12:15:09;11.80;99.90
13806;DHT22;6974;53.606;9.872;2022-11-15T12:17:40;11.90;99.90
13806;DHT22;6974;53.606;9.872;2022-11-15T12:20:16;11.90;99.90
13806;DHT22;6974;53.606;9.872;2022-11-15T12:22:47;11.90;99.90
13806;DHT22;6974;53.606;9.872;2022-11-15T12:25:19;12.00;99.90
13806;DHT22;6974;53.606;9.872;2022-11-15T12:27:52;12.10;99.90
13806;DHT22;6974;53.606;9.872;2022-11-15T12:30:21;12.20;99.90
13806;DHT22;6974;53.606;9.872;2022-11-15T12:32:51;12.20;99.90
13806;DHT22;6974;53.606;9.872;2022-11-15T12:35:35;12.20;99.90
13806;DHT22;6974;53.606;9.872;2022-11-15T12:38:03;12.20;99.90
13806;DHT22;6974;53.606;9.872;2022-11-15T12:40:33;12.20;99.90
13806;DHT22;6974;53.606;9.872;2022-11-15T12:45:52;12.20;99.90
13806;DHT22;6974;53.606;9.872;2022-11-15T12:55:00;12.30;99.90
13806;DHT22;6974;53.606;9.872;2022-11-15T12:57:34;12.30;99.90
13806;DHT22;6974;53.606;9.872;2022-11-15T13:02:47;12.30;99.90
13806;DHT22;6974;53.606;9.872;2022-11-15T13:06:01;12.30;99.90
13806;DHT22;6974;53.606;9.872;2022-11-15T13:08:38;12.40;99.90
13806;DHT22;6974;53.606;9.872;2022-11-15T13:14:37;12.40;99.90
13806;DHT22;6974;53.606;9.872;2022-11-15T13:17:23;12.40;99.90
13806;DHT22;6974;53.606;9.872;2022-11-15T13:19:55;12.40;99.90
13806;DHT22;6974;53.606;9.872;2022-11-15T13:22:24;12.40;99.90
13806;DHT22;6974;53.606;9.872;2022-11-15T13:25:17;12.40;99.90
13806;DHT22;6974;53.606;9.872;2022-11-15T13:27:47;12.50;99.90
13806;DHT22;6974;53.606;9.872;2022-11-15T13:30:19;12.60;99.90
13806;DHT22;6974;53.606;9.872;2022-11-15T13:32:47;12.60;99.90
13806;DHT22;6974;53.606;9.872;2022-11-15T13:35:20;12.60;99.90
13806;DHT22;6974;53.606;9.872;2022-11-15T13:37:47;12.70;99.90
13806;DHT22;6974;53.606;9.872;2022-11-15T13:40:25;12.70;99.90
13806;DHT22;6974;53.606;9.872;2022-11-15T13:42:56;12.60;99.90
13806;DHT22;6974;53.606;9.872;2022-11-15T13:45:24;12.70;99.90
13806;DHT22;6974;53.606;9.872;2022-11-15T13:47:54;12.70;99.90
13806;DHT22;6974;53.606;9.872;2022-11-15T13:50:23;12.70;99.90
13806;DHT22;6974;53.606;9.872;2022-11-15T13:52:50;12.70;99.90
13806;DHT22;6974;53.606;9.872;2022-11-15T13:55:20;12.80;99.90
13806;DHT22;6974;53.606;9.872;2022-11-15T13:57:52;12.80;99.90
13806;DHT22;6974;53.606;9.872;2022-11-15T14:00:33;12.80;99.90
13806;DHT22;6974;53.606;9.872;2022-11-15T14:03:12;12.80;99.90
13806;DHT22;6974;53.606;9.872;2022-11-15T14:05:40;12.90;99.90
13806;DHT22;6974;53.606;9.872;2022-11-15T14:08:22;12.90;99.90
13806;DHT22;6974;53.606;9.872;2022-11-15T14:11:06;12.90;99.90
13806;DHT22;6974;53.606;9.872;2022-11-15T14:13:35;13.00;99.90
13806;DHT22;6974;53.606;9.872;2022-11-15T14:16:19;13.00;99.90
13806;DHT22;6974;53.606;9.872;2022-11-15T14:18:48;13.00;99.90
13806;DHT22;6974;53.606;9.872;2022-11-15T14:21:15;12.90;99.90
13806;DHT22;6974;53.606;9.872;2022-11-15T14:23:43;12.90;99.90
13806;DHT22;6974;53.606;9.872;2022-11-15T14:26:26;12.90;99.90
13806;DHT22;6974;53.606;9.872;2022-11-15T14:28:55;12.90;99.90
13806;DHT22;6974;53.606;9.872;2022-11-15T14:31:22;12.80;99.90
13806;DHT22;6974;53.606;9.872;2022-11-15T14:33:49;12.80;99.90
13806;DHT22;6974;53.606;9.872;2022-11-15T14:36:18;12.80;99.90
13806;DHT22;6974;53.606;9.872;2022-11-15T14:38:45;12.80;99.90
13806;DHT22;6974;53.606;9.872;2022-11-15T14:43:42;12.90;99.90
13806;DHT22;6974;53.606;9.872;2022-11-15T14:46:10;12.80;99.90
13806;DHT22;6974;53.606;9.872;2022-11-15T14:48:38;12.80;99.90
13806;DHT22;6974;53.606;9.872;2022-11-15T14:51:11;12.70;99.90
13806;DHT22;6974;53.606;9.872;2022-11-15T14:53:39;12.60;99.90
13806;DHT22;6974;53.606;9.872;2022-11-15T14:56:06;12.60;99.90
13806;DHT22;6974;53.606;9.872;2022-11-15T14:58:34;12.60;99.90
13806;DHT22;6974;53.606;9.872;2022-11-15T15:01:10;12.60;99.90
13806;DHT22;6974;53.606;9.872;2022-11-15T15:03:39;12.60;99.90
13806;DHT22;6974;53.606;9.872;2022-11-15T15:06:06;12.60;99.90
13806;DHT22;6974;53.606;9.872;2022-11-15T15:08:34;12.60;99.90
13806;DHT22;6974;53.606;9.872;2022-11-15T15:11:03;12.60;99.90
13806;DHT22;6974;53.606;9.872;2022-11-15T15:13:31;12.50;99.90
13806;DHT22;6974;53.606;9.872;2022-11-15T15:15:58;12.40;99.90
13806;DHT22;6974;53.606;9.872;2022-11-15T15:18:27;12.50;99.90
13806;DHT22;6974;53.606;9.872;2022-11-15T15:20:57;12.40;99.90
13806;DHT22;6974;53.606;9.872;2022-11-15T15:23:25;12.40;99.90
13806;DHT22;6974;53.606;9.872;2022-11-15T15:25:56;12.30;99.90
13806;DHT22;6974;53.606;9.872;2022-11-15T15:28:24;12.30;99.90
13806;DHT22;6974;53.606;9.872;2022-11-15T15:30:51;12.20;99.90
13806;DHT22;6974;53.606;9.872;2022-11-15T15:33:18;12.20;99.90
13806;DHT22;6974;53.606;9.872;2022-11-15T15:35:47;12.10;99.90
13806;DHT22;6974;53.606;9.872;2022-11-15T15:38:15;12.10;99.90
13806;DHT22;6974;53.606;9.872;2022-11-15T15:40:43;12.00;99.90
13806;DHT22;6974;53.606;9.872;2022-11-15T15:43:09;12.00;99.90
13806;DHT22;6974;53.606;9.872;2022-11-15T15:45:38;12.00;99.90
13806;DHT22;6974;53.606;9.872;2022-11-15T15:48:05;11.90;99.90
13806;DHT22;6974;53.606;9.872;2022-11-15T15:50:33;11.90;99.90
13806;DHT22;6974;53.606;9.872;2022-11-15T15:53:04;11.90;99.90
13806;DHT22;6974;53.606;9.872;2022-11-15T15:55:33;11.80;99.90
13806;DHT22;6974;53.606;9.872;2022-11-15T15:58:00;11.80;99.90
13806;DHT22;6974;53.606;9.872;2022-11-15T16:00:28;11.80;99.90
13806;DHT22;6974;53.606;9.872;2022-11-15T16:02:58;11.70;99.90
13806;DHT22;6974;53.606;9.872;2022-11-15T16:05:25;11.70;99.90
13806;DHT22;6974;53.606;9.872;2022-11-15T16:07:52;11.70;99.90
13806;DHT22;6974;53.606;9.872;2022-11-15T16:10:25;11.70;99.90
13806;DHT22;6974;53.606;9.872;2022-11-15T16:12:53;11.70;99.90
13806;DHT22;6974;53.606;9.872;2022-11-15T16:15:22;11.70;99.90
13806;DHT22;6974;53.606;9.872;2022-11-15T16:17:53;11.70;99.90
13806;DHT22;6974;53.606;9.872;2022-11-15T16:20:31;11.60;99.90
13806;DHT22;6974;53.606;9.872;2022-11-15T16:22:59;11.70;99.90
13806;DHT22;6974;53.606;9.872;2022-11-15T16:25:28;11.70;99.90
13806;DHT22;6974;53.606;9.872;2022-11-15T16:27:57;11.70;99.90
13806;DHT22;6974;53.606;9.872;2022-11-15T16:30:25;11.70;99.90
13806;DHT22;6974;53.606;9.872;2022-11-15T16:32:52;11.80;99.90
13806;DHT22;6974;53.606;9.872;2022-11-15T16:35:19;11.80;99.90
13806;DHT22;6974;53.606;9.872;2022-11-15T16:37:47;11.80;99.90
13806;DHT22;6974;53.606;9.872;2022-11-15T16:40:23;11.80;99.90
13806;DHT22;6974;53.606;9.872;2022-11-15T16:42:52;11.80;99.90
13806;DHT22;6974;53.606;9.872;2022-11-15T16:45:21;11.80;99.90
13806;DHT22;6974;53.606;9.872;2022-11-15T16:47:48;11.80;99.90